Time;durP1;ratioP1;P1;durP2;ratioP2;P2;SDS_P1;SDS_P2;PMS_P1;PMS_P2;Temp;Humidity;BMP_temperature;BMP_pressure;BME280_temperature;BME280_humidity;BME280_pressure;Samples;Min_cycle;Max_cycle;Signal;HPM_P1;HPM_P2
2021/12/30 00:00:13;;;;;;;0.40;0.20;;;10.50;1.40;;;11.23;100.00;95083.39;647438;216;31465;-74
2021/12/30 00:02:55;;;;;;;0.40;0.20;;;10.60;1.40;;;11.21;100.00;95090.84;646221;216;42203;-76
2021/12/30 00:05:36;;;;;;;0.40;0.20;;;10.60;1.40;;;11.25;100.00;95095.21;627975;222;42560;-76
2021/12/30 00:08:18;;;;;;;0.40;0.20;;;10.60;1.40;;;11.36;100.00;95101.84;646615;216;31632;-76
2021/12/30 00:11:00;;;;;;;0.40;0.30;;;10.80;1.40;;;11.36;100.00;95103.33;620073;222;31954;-76
2021/12/30 00:13:45;;;;;;;0.40;0.20;;;10.70;1.40;;;11.34;100.00;95119.06;647027;212;31515;-77
2021/12/30 00:16:29;;;;;;;0.40;0.20;;;10.70;1.40;;;11.41;100.00;95127.60;647299;216;31521;-76
2021/12/30 00:19:17;;;;;;;0.40;0.20;;;10.80;1.40;;;11.45;100.00;95131.65;646517;216;31536;-76
2021/12/30 00:21:59;;;;;;;0.40;0.20;;;10.80;1.40;;;11.45;100.00;95143.12;619844;226;42467;-77
2021/12/30 00:24:40;;;;;;;0.40;0.20;;;10.70;1.40;;;11.38;100.00;95151.52;619696;226;42915;-77
2021/12/30 00:27:22;;;;;;;0.40;0.20;;;10.60;1.40;;;11.41;100.00;95158.10;648655;216;32887;-75
2021/12/30 00:30:04;;;;;;;0.40;0.20;;;10.70;1.40;;;11.44;100.00;95154.70;647510;216;32081;-75
2021/12/30 00:32:45;;;;;;;0.40;0.20;;;10.70;1.40;;;11.41;100.00;95161.10;648090;216;42498;-75
2021/12/30 00:35:51;;;;;;;0.40;0.20;;;10.70;1.40;;;11.41;100.00;95146.53;646460;212;31479;-77
2021/12/30 00:38:34;;;;;;;0.40;0.20;;;10.70;1.40;;;11.41;100.00;95162.02;620187;226;31877;-75
2021/12/30 00:41:18;;;;;;;0.40;0.20;;;10.70;1.40;;;11.45;100.00;95153.10;646806;216;31563;-77
2021/12/30 00:43:58;;;;;;;0.40;0.20;;;10.80;1.40;;;11.43;100.00;95169.50;620336;226;31893;-76
2021/12/30 00:46:39;;;;;;;0.40;0.20;;;10.70;1.40;;;11.37;100.00;95152.53;646624;216;31630;-74
2021/12/30 00:49:22;;;;;;;0.50;0.30;;;10.60;1.40;;;11.37;100.00;95162.13;620803;222;43647;-76
2021/12/30 00:52:04;;;;;;;0.40;0.20;;;10.60;1.40;;;11.32;100.00;95170.77;646014;216;31512;-74
2021/12/30 00:54:46;;;;;;;0.40;0.20;;;10.70;1.40;;;11.29;100.00;95164.85;646988;212;42135;-76
2021/12/30 00:57:28;;;;;;;0.40;0.20;;;10.70;1.40;;;11.38;100.00;95174.88;647651;212;31555;-77
2021/12/30 01:00:13;;;;;;;0.40;0.20;;;10.70;1.40;;;11.36;100.00;95174.43;647326;216;31468;-75
2021/12/30 01:02:55;;;;;;;0.40;0.20;;;10.60;1.40;;;11.43;100.00;95172.32;646374;216;31539;-76
2021/12/30 01:05:37;;;;;;;0.40;0.20;;;10.70;1.40;;;11.46;100.00;95181.30;642110;212;32275;-76
2021/12/30 01:08:18;;;;;;;0.50;0.30;;;10.80;1.40;;;11.53;100.00;95184.16;618565;222;42866;-76
2021/12/30 01:11:04;;;;;;;0.40;0.20;;;10.90;1.40;;;11.58;100.00;95184.95;647284;216;31619;-74
2021/12/30 01:13:44;;;;;;;0.40;0.30;;;10.80;1.40;;;11.50;100.00;95186.17;635623;217;31878;-75
2021/12/30 01:16:24;;;;;;;0.40;0.20;;;10.80;1.40;;;11.52;100.00;95194.76;647192;212;31529;-76
2021/12/30 01:21:41;;;;;;;0.50;0.30;;;10.70;1.40;;;11.40;100.00;95210.36;647553;212;31482;-76
2021/12/30 01:24:25;;;;;;;0.40;0.20;;;10.50;1.40;;;11.40;100.00;95217.22;647055;212;31522;-75
2021/12/30 01:27:07;;;;;;;0.40;0.20;;;10.60;1.40;;;11.38;100.00;95216.55;619320;226;31865;-76
2021/12/30 01:29:48;;;;;;;;;;;10.70;1.40;;;11.32;100.00;95223.31;653192;212;24911;-74
2021/12/30 01:32:33;;;;;;;;;;;10.60;1.40;;;11.42;100.00;95234.53;654250;216;24819;-74
2021/12/30 01:35:52;;;;;;;0.40;0.20;;;10.70;1.40;;;11.36;100.00;95232.78;646965;216;31451;-75
2021/12/30 01:38:36;;;;;;;0.40;0.20;;;10.70;1.40;;;11.48;100.00;95241.52;646110;212;34428;-76
2021/12/30 01:41:18;;;;;;;0.40;0.20;;;10.90;1.40;;;11.43;100.00;95242.03;647515;216;32015;-74
2021/12/30 01:44:00;;;;;;;0.40;0.30;;;10.80;1.40;;;11.44;100.00;95252.17;646128;216;31694;-74
2021/12/30 01:46:41;;;;;;;0.40;0.20;;;10.80;1.40;;;11.45;100.00;95253.97;646860;212;42617;-74
2021/12/30 01:49:24;;;;;;;0.40;0.20;;;10.80;1.40;;;11.45;100.00;95259.95;647098;212;42552;-76
2021/12/30 01:52:05;;;;;;;0.40;0.20;;;10.80;1.40;;;11.47;100.00;95262.94;646787;212;31691;-74
2021/12/30 01:54:47;;;;;;;0.40;0.20;;;10.80;1.40;;;11.51;100.00;95257.17;645658;216;31496;-75
2021/12/30 01:57:28;;;;;;;0.40;0.20;;;10.80;1.40;;;11.51;100.00;95269.02;622029;226;32025;-75
2021/12/30 02:00:12;;;;;;;0.40;0.20;;;10.70;1.40;;;11.47;100.00;95280.73;648414;216;42673;-73
2021/12/30 02:02:53;;;;;;;;;;;10.70;1.40;;;11.43;100.00;95278.30;653419;216;24870;-73
2021/12/30 02:05:39;;;;;;;;;;;10.60;1.40;;;11.37;100.00;95275.22;605847;233;25463;-74
2021/12/30 02:08:23;;;;;;;;;;;10.60;1.40;;;11.37;100.00;95281.29;654749;216;24902;-73
2021/12/30 02:11:04;;;;;;;;;;;10.60;1.40;;;11.35;100.00;95286.82;653741;216;24826;-74
2021/12/30 02:13:46;;;;;;;;;;;10.70;1.40;;;11.40;100.00;95290.60;654424;212;24849;-73
2021/12/30 02:16:27;;;;;;;;;;;10.70;1.40;;;11.39;100.00;95293.02;650376;216;24808;-74
2021/12/30 02:19:08;;;;;;;;;;;10.70;1.40;;;11.39;100.00;95296.44;654213;216;25321;-76
2021/12/30 02:21:49;;;;;;;;;;;10.70;1.40;;;11.43;100.00;95300.13;654005;216;24811;-73
2021/12/30 02:24:31;;;;;;;;;;;10.80;1.40;;;11.48;100.00;95304.66;652544;216;24730;-75
2021/12/30 02:27:13;;;;;;;;;;;10.80;1.40;;;11.48;100.00;95309.05;653488;212;25445;-73
2021/12/30 02:29:54;;;;;;;;;;;10.80;1.40;;;11.48;100.00;95317.92;654435;212;24845;-74
2021/12/30 02:32:35;;;;;;;;;;;10.80;1.40;;;11.51;100.00;95317.23;654344;216;24820;-73
2021/12/30 02:35:51;;;;;;;0.40;0.20;;;10.90;1.40;;;11.59;100.00;95315.28;646106;216;31714;-75
2021/12/30 02:38:33;;;;;;;0.40;0.20;;;11.00;1.40;;;11.56;100.00;95313.31;647174;216;31514;-73
2021/12/30 02:41:17;;;;;;;0.40;0.20;;;10.90;1.40;;;11.58;100.00;95312.11;647975;212;31600;-76
2021/12/30 02:44:00;;;;;;;0.40;0.20;;;11.00;1.40;;;11.57;100.00;95320.42;620366;226;42679;-76
2021/12/30 02:46:43;;;;;;;0.40;0.20;;;10.90;1.40;;;11.60;100.00;95306.81;647418;216;31574;-73
2021/12/30 02:49:24;;;;;;;0.40;0.20;;;11.00;1.40;;;11.68;100.00;95312.25;647990;216;31585;-73
2021/12/30 02:52:09;;;;;;;0.40;0.30;;;11.00;1.40;;;11.65;100.00;95326.98;621430;222;32025;-73
2021/12/30 02:54:52;;;;;;;0.40;0.30;;;11.00;1.40;;;11.66;100.00;95331.17;646731;216;31845;-74
2021/12/30 02:57:33;;;;;;;0.40;0.20;;;10.90;1.40;;;11.57;100.00;95335.89;647211;216;32067;-73
2021/12/30 03:00:15;;;;;;;0.40;0.20;;;10.80;1.40;;;11.55;100.00;95346.89;647779;216;31689;-73
2021/12/30 03:02:56;;;;;;;0.40;0.20;;;10.70;1.40;;;11.51;100.00;95353.11;646930;212;31686;-73
2021/12/30 03:05:38;;;;;;;0.40;0.20;;;10.60;1.40;;;11.50;100.00;95356.39;642020;216;32113;-74
2021/12/30 03:08:20;;;;;;;0.40;0.20;;;10.60;1.40;;;11.50;100.00;95359.06;648166;212;31481;-74
2021/12/30 03:11:01;;;;;;;0.40;0.20;;;10.60;1.40;;;11.48;100.00;95363.62;619250;222;32417;-73
2021/12/30 03:13:44;;;;;;;0.40;0.20;;;10.60;1.40;;;11.43;100.00;95367.84;648105;212;31601;-73
2021/12/30 03:16:25;;;;;;;0.40;0.20;;;10.50;1.40;;;11.40;100.00;95372.73;648447;216;31724;-74
2021/12/30 03:19:06;;;;;;;0.40;0.20;;;10.50;1.40;;;11.45;100.00;95372.08;648030;216;31490;-73
2021/12/30 03:21:49;;;;;;;0.70;0.30;;;10.50;1.40;;;11.44;100.00;95374.96;647615;212;31608;-73
2021/12/30 03:24:31;;;;;;;0.40;0.20;;;10.50;1.40;;;11.41;100.00;95378.14;647374;216;32026;-74
2021/12/30 03:27:15;;;;;;;0.40;0.30;;;10.50;1.40;;;11.42;100.00;95390.88;646101;216;31899;-74
2021/12/30 03:29:57;;;;;;;0.40;0.20;;;10.60;1.40;;;11.43;100.00;95394.27;648421;216;31484;-77
2021/12/30 03:35:52;;;;;;;0.40;0.20;;;10.60;1.40;;;11.48;100.00;95401.58;646245;216;31531;-75
2021/12/30 03:38:34;;;;;;;0.40;0.20;;;10.70;1.40;;;11.49;100.00;95401.34;619960;226;42526;-75
2021/12/30 03:41:16;;;;;;;0.40;0.20;;;10.70;1.40;;;11.51;100.00;95410.29;619794;226;42470;-74
2021/12/30 03:43:59;;;;;;;0.40;0.20;;;10.70;1.40;;;11.55;100.00;95426.30;647071;216;31486;-75
2021/12/30 03:46:39;;;;;;;0.40;0.20;;;10.70;1.40;;;11.57;100.00;95434.30;647293;216;31596;-74
2021/12/30 03:49:21;;;;;;;0.40;0.20;;;10.80;1.40;;;11.63;100.00;95427.55;647407;212;31590;-74
2021/12/30 03:52:03;;;;;;;0.40;0.30;;;10.90;1.40;;;11.57;100.00;95432.55;646749;216;42224;-75
2021/12/30 03:54:44;;;;;;;0.40;0.20;;;10.90;1.40;;;11.52;100.00;95426.08;646786;216;43127;-74
2021/12/30 03:57:27;;;;;;;0.40;0.20;;;10.90;1.40;;;11.50;100.00;95428.52;646776;216;35388;-74
2021/12/30 04:00:10;;;;;;;0.40;0.20;;;10.90;1.40;;;11.45;100.00;95430.92;646706;216;42118;-75
2021/12/30 04:02:52;;;;;;;0.40;0.20;;;10.80;1.40;;;11.42;100.00;95438.45;648020;212;31498;-74
2021/12/30 04:05:34;;;;;;;0.40;0.20;;;10.80;1.40;;;11.41;100.00;95433.25;641389;212;42294;-76
2021/12/30 04:08:15;;;;;;;0.40;0.30;;;10.80;1.40;;;11.45;100.00;95441.23;646440;216;31500;-73
2021/12/30 04:10:58;;;;;;;0.40;0.20;;;10.90;1.40;;;11.44;100.00;95443.11;619294;222;42636;-74
2021/12/30 04:13:40;;;;;;;0.40;0.20;;;10.80;1.40;;;11.46;100.00;95442.29;647413;216;42104;-74
2021/12/30 04:18:56;;;;;;;0.40;0.20;;;10.80;1.40;;;11.43;100.00;95449.48;646761;212;31526;-74
2021/12/30 04:21:38;;;;;;;0.40;0.20;;;10.90;1.40;;;11.45;100.00;95452.27;647521;216;32040;-74
2021/12/30 04:24:20;;;;;;;0.50;0.28;;;10.90;1.40;;;11.49;100.00;95454.98;647310;216;31468;-76
2021/12/30 04:27:05;;;;;;;0.40;0.20;;;10.90;1.40;;;11.43;100.00;95469.31;648184;216;31479;-75
2021/12/30 04:29:46;;;;;;;0.40;0.20;;;10.80;1.40;;;11.47;100.00;95475.56;619475;225;32097;-73
2021/12/30 04:32:28;;;;;;;0.40;0.20;;;10.90;1.40;;;11.48;100.00;95475.74;647309;216;31482;-73
2021/12/30 04:35:56;;;;;;;0.40;0.20;;;10.90;1.40;;;11.42;100.00;95491.55;647170;212;31473;-74
2021/12/30 04:38:33;;;;;;;0.50;0.30;;;10.80;1.40;;;11.52;100.00;95489.07;647399;216;42075;-74
2021/12/30 04:41:15;;;;;;;0.40;0.20;;;10.90;1.40;;;11.52;100.00;95483.79;647954;212;42114;-73
2021/12/30 04:44:00;;;;;;;0.40;0.20;;;10.90;1.40;;;11.43;100.00;95488.63;647581;216;42218;-76
2021/12/30 04:46:41;;;;;;;0.40;0.20;;;10.80;1.40;;;11.53;100.00;95495.48;646351;216;31513;-76
2021/12/30 04:49:23;;;;;;;0.40;0.20;;;10.90;1.40;;;11.44;100.00;95495.83;647457;212;42165;-75
2021/12/30 04:52:06;;;;;;;0.40;0.20;;;10.80;1.40;;;11.44;100.00;95502.52;646607;212;42167;-75
2021/12/30 04:54:48;;;;;;;0.40;0.30;;;10.80;1.40;;;11.45;100.00;95509.92;647045;212;31501;-76
2021/12/30 04:57:29;;;;;;;0.40;0.20;;;10.80;1.40;;;11.52;100.00;95504.36;648241;216;31503;-76
2021/12/30 05:00:12;;;;;;;0.40;0.20;;;11.00;1.40;;;11.55;100.00;95517.48;620517;222;32357;-75
2021/12/30 05:05:46;;;;;;;0.50;0.20;;;10.90;1.40;;;11.46;100.00;95529.72;639779;212;31668;-73
2021/12/30 05:08:28;;;;;;;0.40;0.20;;;10.80;1.40;;;11.50;100.00;95534.39;647158;213;31489;-74
2021/12/30 05:11:09;;;;;;;0.40;0.20;;;10.90;1.40;;;11.59;100.00;95541.48;631731;220;31755;-75
2021/12/30 05:13:51;;;;;;;0.40;0.27;;;11.00;1.40;;;11.50;100.00;95543.47;647757;212;31674;-73
2021/12/30 05:16:33;;;;;;;0.40;0.30;;;10.90;1.40;;;11.42;100.00;95547.34;646337;212;42813;-73
2021/12/30 05:19:15;;;;;;;0.40;0.30;;;10.70;1.40;;;11.39;100.00;95543.46;648189;216;31973;-75
2021/12/30 05:21:56;;;;;;;0.40;0.20;;;10.70;1.40;;;11.46;100.00;95543.77;648491;212;31671;-75
2021/12/30 05:24:38;;;;;;;0.40;0.20;;;10.80;1.40;;;11.47;100.00;95546.69;648616;216;31580;-76
2021/12/30 05:27:23;;;;;;;0.40;0.30;;;10.90;1.40;;;11.55;100.00;95547.14;646453;212;42098;-74
2021/12/30 05:30:05;;;;;;;0.40;0.30;;;10.90;1.40;;;11.57;100.00;95553.55;647445;212;31501;-76
2021/12/30 05:32:47;;;;;;;0.40;0.20;;;10.90;1.40;;;11.59;100.00;95561.36;646465;216;31649;-73
2021/12/30 05:35:50;;;;;;;0.40;0.20;;;10.90;1.40;;;11.54;100.00;95566.22;646285;216;31509;-76
2021/12/30 05:38:32;;;;;;;0.40;0.20;;;10.90;1.40;;;11.57;100.00;95571.14;646751;216;42269;-76
2021/12/30 05:41:15;;;;;;;0.30;0.15;;;10.90;1.40;;;11.58;100.00;95574.58;647008;212;31506;-75
2021/12/30 05:43:58;;;;;;;0.52;0.40;;;10.90;1.40;;;11.67;100.00;95569.00;647495;212;31496;-76
2021/12/30 05:46:40;;;;;;;0.40;0.20;;;11.00;1.40;;;11.65;100.00;95565.66;646811;216;31498;-74
2021/12/30 05:49:27;;;;;;;0.40;0.20;;;10.90;1.40;;;11.66;100.00;95573.70;647221;215;31509;-74
2021/12/30 05:52:08;;;;;;;0.40;0.20;;;11.00;1.40;;;11.65;100.00;95579.05;646471;212;31775;-76
2021/12/30 05:54:50;;;;;;;0.43;0.30;;;10.90;1.40;;;11.62;100.00;95577.47;647465;212;31639;-74
2021/12/30 05:57:32;;;;;;;0.40;0.20;;;10.90;1.40;;;11.70;100.00;95580.33;647700;212;31520;-76
2021/12/30 06:00:15;;;;;;;0.40;0.30;;;11.00;1.40;;;11.67;100.00;95594.26;646141;212;31497;-73
2021/12/30 06:02:57;;;;;;;0.40;0.30;;;11.00;1.40;;;11.70;100.00;95587.55;646817;212;32153;-76
2021/12/30 06:05:42;;;;;;;0.40;0.30;;;11.00;1.40;;;11.69;100.00;95594.09;642402;216;31685;-75
2021/12/30 06:08:23;;;;;;;0.40;0.20;;;11.00;1.40;;;11.71;100.00;95604.77;647216;213;31513;-74
2021/12/30 06:11:08;;;;;;;0.43;0.30;;;11.00;1.40;;;11.68;100.00;95605.91;646754;212;31746;-74
2021/12/30 06:13:51;;;;;;;0.40;0.20;;;10.90;1.40;;;11.74;100.00;95602.97;648001;216;31507;-74
2021/12/30 06:16:33;;;;;;;0.40;0.20;;;11.00;1.40;;;11.71;100.00;95602.69;619822;226;31864;-73
2021/12/30 06:19:15;;;;;;;0.40;0.30;;;11.00;1.40;;;11.77;100.00;95611.65;646156;216;31493;-74
2021/12/30 06:21:57;;;;;;;0.40;0.20;;;11.00;1.40;;;11.85;100.00;95620.81;647586;212;31557;-74
2021/12/30 06:24:39;;;;;;;0.40;0.20;;;11.10;1.40;;;11.78;100.00;95618.21;647577;216;31495;-74
2021/12/30 06:27:20;;;;;;;0.40;0.30;;;11.00;1.40;;;11.85;100.00;95620.02;647363;216;31511;-74
2021/12/30 06:30:02;;;;;;;0.40;0.20;;;11.10;1.40;;;11.88;100.00;95617.98;647355;216;31514;-76
2021/12/30 06:32:44;;;;;;;0.40;0.20;;;11.10;1.40;;;11.84;100.00;95624.86;646091;212;31750;-74
2021/12/30 06:35:51;;;;;;;0.40;0.20;;;11.10;1.40;;;11.91;100.00;95619.90;646450;216;31477;-75
2021/12/30 06:38:36;;;;;;;0.43;0.30;;;11.20;1.40;;;11.88;100.00;95624.88;647726;212;38256;-75
2021/12/30 06:41:18;;;;;;;0.40;0.30;;;11.20;1.40;;;11.93;100.00;95629.09;648527;212;31520;-76
2021/12/30 06:44:00;;;;;;;0.40;0.30;;;11.20;1.40;;;11.93;100.00;95631.84;646808;212;31506;-77
2021/12/30 06:46:51;;;;;;;0.40;0.30;;;11.20;1.40;;;11.95;100.00;95631.92;648017;216;31496;-75
2021/12/30 06:49:23;;;;;;;0.40;0.20;;;11.10;1.40;;;11.96;100.00;95649.72;634981;220;31662;-74
2021/12/30 06:52:05;;;;;;;0.40;0.20;;;11.20;1.40;;;11.96;100.00;95645.97;619509;226;31859;-75
2021/12/30 06:54:46;;;;;;;0.40;0.20;;;11.30;1.40;;;12.04;100.00;95642.90;619494;226;31812;-74
2021/12/30 06:57:28;;;;;;;0.40;0.20;;;11.30;1.40;;;12.05;100.00;95647.75;646057;216;31521;-74
2021/12/30 07:00:11;;;;;;;0.40;0.20;;;11.20;1.40;;;12.00;100.00;95654.02;648180;212;31670;-77
2021/12/30 07:02:52;;;;;;;0.40;0.20;;;11.20;1.40;;;12.05;100.00;95648.80;646774;216;31591;-77
2021/12/30 07:08:09;;;;;;;0.40;0.20;;;11.20;1.40;;;11.97;100.00;95664.96;620641;225;31793;-78
2021/12/30 07:10:53;;;;;;;0.40;0.20;;;11.20;1.40;;;11.89;100.00;95664.69;619045;222;32124;-77
2021/12/30 07:13:35;;;;;;;0.40;0.20;;;11.20;1.40;;;11.89;100.00;95656.31;647445;212;31614;-75
2021/12/30 07:16:20;;;;;;;0.50;0.20;;;11.20;1.40;;;11.95;100.00;95658.27;645615;212;42283;-74
2021/12/30 07:19:01;;;;;;;0.40;0.20;;;11.30;1.40;;;11.97;100.00;95663.45;620714;222;31850;-76
2021/12/30 07:21:43;;;;;;;0.40;0.20;;;11.20;1.40;;;11.91;100.00;95669.78;618091;226;32068;-77
2021/12/30 07:24:25;;;;;;;0.40;0.20;;;11.20;1.40;;;11.91;100.00;95668.48;646886;216;31653;-78
2021/12/30 07:27:07;;;;;;;0.40;0.30;;;11.20;1.40;;;11.92;100.00;95667.52;646893;216;32089;-77
2021/12/30 07:29:52;;;;;;;0.40;0.20;;;11.20;1.40;;;11.85;100.00;95670.53;647406;216;37182;-77
2021/12/30 07:32:34;;;;;;;0.40;0.20;;;11.20;1.40;;;11.86;100.00;95666.48;646652;216;31482;-78
2021/12/30 07:35:51;;;;;;;0.40;0.30;;;11.20;1.40;;;11.85;100.00;95671.51;646760;212;32090;-77
2021/12/30 07:38:36;;;;;;;0.40;0.20;;;11.20;1.40;;;11.78;100.00;95680.06;647322;216;31623;-77
2021/12/30 07:41:18;;;;;;;0.40;0.20;;;11.10;1.40;;;11.81;100.00;95676.60;647790;216;31563;-78
2021/12/30 07:44:00;;;;;;;0.40;0.20;;;11.10;1.40;;;11.83;100.00;95690.52;631000;217;31613;-77
2021/12/30 07:46:42;;;;;;;0.40;0.20;;;11.20;1.40;;;11.86;100.00;95677.36;647204;212;31502;-77
2021/12/30 07:49:23;;;;;;;0.40;0.30;;;11.10;1.40;;;11.82;100.00;95672.02;648016;212;31508;-77
2021/12/30 07:52:09;;;;;;;0.40;0.20;;;11.10;1.40;;;11.82;100.00;95679.29;646619;212;42095;-77
2021/12/30 07:54:51;;;;;;;0.40;0.20;;;11.10;1.40;;;11.79;100.00;95672.19;647626;216;42103;-75
2021/12/30 07:57:33;;;;;;;0.40;0.20;;;11.10;1.40;;;11.84;100.00;95680.39;619965;222;43253;-75
2021/12/30 08:00:18;;;;;;;0.50;0.20;;;11.10;1.40;;;11.82;100.00;95681.36;646726;212;32717;-75
2021/12/30 08:02:59;;;;;;;0.40;0.20;;;11.10;1.40;;;11.79;100.00;95683.78;646521;216;32112;-74
2021/12/30 08:05:45;;;;;;;0.40;0.20;;;11.10;1.40;;;11.83;100.00;95682.38;640374;216;32384;-74
2021/12/30 08:08:26;;;;;;;0.40;0.20;;;11.10;1.40;;;11.75;100.00;95683.93;642419;214;31484;-75
2021/12/30 08:11:07;;;;;;;0.40;0.20;;;11.00;1.40;;;11.77;100.00;95680.41;646833;212;32103;-77
2021/12/30 08:13:49;;;;;;;0.40;0.20;;;11.10;1.40;;;11.79;100.00;95683.55;648201;216;32459;-78
2021/12/30 08:16:31;;;;;;;0.40;0.20;;;11.00;1.40;;;11.82;100.00;95689.34;646693;216;42854;-75
2021/12/30 08:19:19;;;;;;;0.40;0.20;;;11.10;1.40;;;11.89;100.00;95693.70;645914;216;42216;-76
2021/12/30 08:22:02;;;;;;;0.40;0.20;;;11.10;1.40;;;11.92;100.00;95693.06;619165;222;31839;-77
2021/12/30 08:24:47;;;;;;;0.40;0.20;;;11.30;1.40;;;11.95;100.00;95691.91;619451;226;31947;-77
2021/12/30 08:27:29;;;;;;;0.40;0.20;;;11.20;1.40;;;11.97;100.00;95695.56;646696;212;31498;-78
2021/12/30 08:30:16;;;;;;;0.40;0.20;;;11.20;1.40;;;11.97;100.00;95692.61;601986;233;42829;-77
2021/12/30 08:32:58;;;;;;;0.40;0.20;;;11.30;1.40;;;11.96;100.00;95697.91;647740;212;32123;-75
2021/12/30 08:35:54;;;;;;;0.40;0.20;;;11.20;1.40;;;11.97;100.00;95687.95;647041;212;31547;-78
2021/12/30 08:38:35;;;;;;;0.40;0.20;;;11.30;1.40;;;12.03;100.00;95685.03;643077;215;42218;-76
2021/12/30 08:41:17;;;;;;;0.40;0.20;;;11.30;1.40;;;12.03;100.00;95689.98;647876;212;31520;-76
2021/12/30 08:44:02;;;;;;;0.40;0.20;;;11.40;1.40;;;12.06;100.00;95692.67;632148;221;31654;-77
2021/12/30 08:46:44;;;;;;;0.50;0.50;;;11.40;1.40;;;12.11;100.00;95702.14;647575;212;33514;-76
2021/12/30 08:49:25;;;;;;;0.40;0.20;;;11.40;1.40;;;12.18;100.00;95698.84;647840;216;31552;-76
2021/12/30 08:52:08;;;;;;;0.70;0.30;;;11.50;1.40;;;12.18;100.00;95708.52;646623;216;31513;-75
2021/12/30 08:54:49;;;;;;;0.40;0.20;;;11.50;1.40;;;12.15;100.00;95709.23;619664;226;31977;-77
2021/12/30 08:57:31;;;;;;;0.70;0.30;;;11.40;1.40;;;12.13;100.00;95714.67;619224;226;31840;-75
2021/12/30 09:00:23;;;;;;;0.40;0.23;;;11.50;1.40;;;12.20;100.00;95711.94;647613;216;31466;-76
2021/12/30 09:03:05;;;;;;;0.30;0.30;;;11.50;1.40;;;12.16;100.00;95728.62;625199;226;22703;-75
2021/12/30 09:05:46;;;;;;;0.40;0.20;;;11.50;1.40;;;12.22;100.00;95724.56;641027;216;31882;-77
2021/12/30 09:08:28;;;;;;;0.40;0.20;;;11.50;1.40;;;12.30;100.00;95725.87;646613;216;31757;-77
2021/12/30 09:11:11;;;;;;;0.40;0.23;;;11.60;1.40;;;12.34;100.00;95723.76;646671;212;31485;-75
2021/12/30 09:13:53;;;;;;;0.70;0.30;;;11.60;1.40;;;12.36;100.00;95727.03;647024;216;31483;-78
2021/12/30 09:16:35;;;;;;;0.40;0.20;;;11.70;1.40;;;12.40;100.00;95726.44;648495;216;32128;-77
2021/12/30 09:19:20;;;;;;;0.40;0.20;;;11.70;1.40;;;12.48;100.00;95722.73;619736;222;31790;-77
2021/12/30 09:22:03;;;;;;;0.40;0.20;;;11.80;1.40;;;12.60;100.00;95721.30;648346;216;31479;-78
2021/12/30 09:24:50;;;;;;;0.40;0.20;;;11.90;1.40;;;12.68;100.00;95716.59;646532;216;32058;-76
2021/12/30 09:27:38;;;;;;;0.40;0.25;;;11.90;1.40;;;12.77;100.00;95722.37;618577;226;33233;-78
2021/12/30 09:30:20;;;;;;;0.40;0.30;;;12.00;1.40;;;12.73;100.00;95717.57;643752;216;31710;-76
2021/12/30 09:33:02;;;;;;;1.00;0.60;;;12.00;1.40;;;12.88;100.00;95720.88;648984;212;31638;-78
2021/12/30 09:35:51;;;;;;;0.40;0.30;;;12.10;1.40;;;12.85;100.00;95724.46;646551;216;31508;-77
2021/12/30 09:38:34;;;;;;;0.50;0.20;;;12.10;1.40;;;12.82;100.00;95725.94;647797;216;32582;-76
2021/12/30 09:41:15;;;;;;;0.40;0.20;;;12.00;1.40;;;12.88;100.00;95735.77;619592;222;31804;-76
2021/12/30 09:43:57;;;;;;;0.50;0.40;;;12.10;1.40;;;12.89;100.00;95737.75;621504;222;32869;-78
2021/12/30 09:46:39;;;;;;;0.40;0.30;;;12.10;1.40;;;12.86;100.00;95731.34;646751;216;31467;-78
2021/12/30 09:49:23;;;;;;;0.40;0.20;;;12.10;1.40;;;12.79;100.00;95736.89;620096;222;32792;-78
2021/12/30 09:52:03;;;;;;;0.40;0.40;;;12.00;1.40;;;12.79;100.00;95723.45;647889;216;31644;-78
2021/12/30 09:54:44;;;;;;;0.80;0.30;;;12.00;1.40;;;12.76;100.00;95722.34;620463;225;33006;-78
2021/12/30 09:57:26;;;;;;;0.70;0.60;;;12.00;1.40;;;12.84;100.00;95725.70;620082;225;42459;-76
2021/12/30 10:00:09;;;;;;;0.40;0.20;;;11.90;1.40;;;12.86;100.00;95719.88;631695;222;31701;-75
2021/12/30 10:02:50;;;;;;;0.40;0.20;;;12.00;1.40;;;12.94;100.00;95717.64;647456;212;34047;-76
2021/12/30 10:05:33;;;;;;;0.40;0.20;;;12.10;1.40;;;13.06;100.00;95710.64;616340;226;32774;-78
2021/12/30 10:08:22;;;;;;;0.40;0.20;;;12.20;1.40;;;13.17;100.00;95717.21;647174;212;42604;-78
2021/12/30 10:11:06;;;;;;;0.40;0.30;;;12.40;1.40;;;13.31;100.00;95721.77;620673;224;36245;-77
2021/12/30 10:13:52;;;;;;;0.40;0.20;;;12.50;1.40;;;13.18;100.00;95718.55;647102;212;31503;-79
2021/12/30 10:16:34;;;;;;;0.40;0.20;;;12.50;1.40;;;13.11;100.00;95726.36;647396;212;34423;-78
2021/12/30 10:21:58;;;;;;;0.40;0.20;;;12.50;1.40;;;13.21;100.00;95729.88;647260;216;33327;-78
2021/12/30 10:24:39;;;;;;;0.40;0.20;;;12.50;1.40;;;13.24;100.00;95717.89;648123;216;37781;-77
2021/12/30 10:27:25;;;;;;;0.40;0.20;;;12.60;1.40;;;13.30;100.00;95714.72;647596;216;31495;-78
2021/12/30 10:30:07;;;;;;;0.40;0.20;;;12.70;1.40;;;13.52;100.00;95707.80;647377;216;31520;-76
2021/12/30 10:32:51;;;;;;;0.40;0.20;;;12.90;1.40;;;13.61;100.00;95702.61;647436;216;42397;-76
2021/12/30 10:35:57;;;;;;;0.40;0.30;;;13.10;1.40;;;14.24;100.00;95703.81;642648;217;31485;-76
2021/12/30 10:41:04;;;;;;;0.40;0.20;;;13.50;1.40;;;14.47;100.00;95711.13;646857;216;31495;-76
2021/12/30 10:43:47;;;;;;;0.40;0.20;;;13.80;1.40;;;14.30;100.00;95708.80;647492;212;32265;-78
2021/12/30 10:46:30;;;;;;;0.40;0.30;;;13.40;1.40;;;13.88;100.00;95714.78;646035;212;32096;-76
2021/12/30 10:49:20;;;;;;;0.40;0.30;;;13.10;1.40;;;13.81;100.00;95708.56;647713;212;31484;-78
2021/12/30 10:52:15;;;;;;;0.40;0.20;;;13.00;1.40;;;13.79;100.00;95717.80;647135;216;31512;-75
2021/12/30 10:54:59;;;;;;;0.40;0.20;;;13.10;1.40;;;13.84;100.00;95719.02;620728;226;43801;-77
2021/12/30 10:57:46;;;;;;;0.40;0.28;;;13.10;1.40;;;13.92;100.00;95718.75;645968;216;42118;-76
2021/12/30 11:00:34;;;;;;;0.40;0.20;;;13.10;1.40;;;13.95;100.00;95722.03;620593;222;33485;-78
2021/12/30 11:03:24;;;;;;;0.40;0.20;;;13.20;1.40;;;13.96;100.00;95711.95;619897;222;42489;-78
2021/12/30 11:08:50;;;;;;;0.40;0.30;;;13.30;1.40;;;14.21;100.00;95733.01;619748;226;31922;-78
2021/12/30 11:11:31;;;;;;;0.40;0.20;;;13.60;1.40;;;14.88;100.00;95715.20;619517;226;31809;-75
2021/12/30 11:14:19;;;;;;;0.60;0.30;;;15.30;1.40;;;15.63;100.00;95724.12;645914;216;31504;-76
2021/12/30 11:17:12;;;;;;;0.40;0.20;;;14.60;1.40;;;14.92;100.00;95737.40;619858;222;32217;-76
2021/12/30 11:19:54;;;;;;;0.50;0.20;;;13.70;1.40;;;14.49;100.00;95739.72;648703;212;31471;-76
2021/12/30 11:22:41;;;;;;;0.40;0.20;;;13.50;1.40;;;14.30;100.00;95741.05;646410;212;32027;-76
2021/12/30 11:25:29;;;;;;;0.40;0.20;;;13.40;1.40;;;14.15;100.00;95737.78;619447;222;31808;-78
2021/12/30 11:28:11;;;;;;;0.40;0.20;;;13.30;1.40;;;14.28;100.00;95738.42;646482;212;31497;-76
2021/12/30 11:30:59;;;;;;;0.40;0.20;;;13.40;1.40;;;14.30;100.00;95735.45;646241;212;31470;-76
2021/12/30 11:38:26;;;;;;;0.40;0.30;;;13.50;1.40;;;14.47;100.00;95751.79;646835;212;31518;-77
2021/12/30 11:41:07;;;;;;;0.40;0.20;;;13.50;1.40;;;14.24;100.00;95755.13;619634;226;32326;-75
2021/12/30 11:43:49;;;;;;;0.40;0.30;;;13.40;1.40;;;14.25;100.00;95740.74;647083;216;31556;-78
2021/12/30 11:46:42;;;;;;;0.40;0.20;;;13.40;1.40;;;14.38;100.00;95745.34;619084;222;31821;-75
2021/12/30 11:49:25;;;;;;;0.40;0.20;;;13.50;1.40;;;14.42;100.00;95738.65;647019;216;31516;-76
2021/12/30 11:52:06;;;;;;;0.40;0.30;;;13.60;1.40;;;14.36;100.00;95744.62;647244;216;31490;-76
2021/12/30 11:54:48;;;;;;;0.40;0.30;;;13.40;1.40;;;14.14;100.00;95747.08;648449;216;31553;-76
2021/12/30 11:57:32;;;;;;;0.40;0.30;;;13.40;1.40;;;14.21;100.00;95750.31;646965;212;31604;-78